Las Vegas, Nevada
Traffic Map
Current Weather Conditions
Las Vegas, Nevada
Scattered Clouds
Scattered Clouds
36°
Feels Like: 36°
Wind Chill: 36° Ceiling: Unl
Heat Index: 36° Visibility: 10mi
Dew Point: 10° Wind: 12mph
Humidity: 21% Direction: 210° (SSW)
Pressure: 29.81in Gusts: 0mph
Raw Report DataKLAS 030656Z 21010KT 10SM SCT250 36/10 A2981 RMK AO2 SLP061 T03560100
Traffic Incident Summary
Active as of:
Severity:
Category:
InformationThere was an issue retrieving the traffic information for this location. Please try a different location or try again shortly.
Advertisements
Track Severe Weather on mobile